sensor_id;sensor_type;location;lat;lon;timestamp;P1;durP1;ratioP1;P2;durP2;ratioP2
43552;SDS011;29153;42.696;23.218;2023-05-07T00:01:09;7.03;;;3.67;;
43552;SDS011;29153;42.696;23.218;2023-05-07T00:03:36;7.37;;;4.65;;
43552;SDS011;29153;42.696;23.218;2023-05-07T00:06:04;7.03;;;3.55;;
43552;SDS011;29153;42.696;23.218;2023-05-07T00:08:32;6.03;;;3.83;;
43552;SDS011;29153;42.696;23.218;2023-05-07T00:10:59;8.65;;;4.80;;
43552;SDS011;29153;42.696;23.218;2023-05-07T00:13:27;6.62;;;4.25;;
43552;SDS011;29153;42.696;23.218;2023-05-07T00:15:56;7.83;;;4.92;;
43552;SDS011;29153;42.696;23.218;2023-05-07T00:18:23;6.67;;;4.03;;
43552;SDS011;29153;42.696;23.218;2023-05-07T00:20:51;7.40;;;4.33;;
43552;SDS011;29153;42.696;23.218;2023-05-07T00:23:19;8.08;;;3.87;;
43552;SDS011;29153;42.696;23.218;2023-05-07T00:25:46;9.10;;;3.80;;
43552;SDS011;29153;42.696;23.218;2023-05-07T00:28:14;7.10;;;3.77;;
43552;SDS011;29153;42.696;23.218;2023-05-07T00:30:41;6.60;;;3.90;;
43552;SDS011;29153;42.696;23.218;2023-05-07T00:33:09;7.30;;;4.25;;
43552;SDS011;29153;42.696;23.218;2023-05-07T00:35:36;8.23;;;4.10;;
43552;SDS011;29153;42.696;23.218;2023-05-07T00:38:04;6.35;;;3.90;;
43552;SDS011;29153;42.696;23.218;2023-05-07T00:40:31;7.55;;;4.35;;
43552;SDS011;29153;42.696;23.218;2023-05-07T00:42:59;6.87;;;3.95;;
43552;SDS011;29153;42.696;23.218;2023-05-07T00:45:27;6.53;;;3.75;;
43552;SDS011;29153;42.696;23.218;2023-05-07T00:50:23;6.50;;;3.65;;
43552;SDS011;29153;42.696;23.218;2023-05-07T00:52:52;7.75;;;4.00;;
43552;SDS011;29153;42.696;23.218;2023-05-07T00:55:21;6.45;;;3.72;;
43552;SDS011;29153;42.696;23.218;2023-05-07T00:57:50;7.78;;;4.00;;
43552;SDS011;29153;42.696;23.218;2023-05-07T01:00:18;10.05;;;4.05;;
43552;SDS011;29153;42.696;23.218;2023-05-07T01:02:46;8.10;;;3.72;;
43552;SDS011;29153;42.696;23.218;2023-05-07T01:05:14;8.73;;;4.50;;
43552;SDS011;29153;42.696;23.218;2023-05-07T01:07:43;7.95;;;3.72;;
43552;SDS011;29153;42.696;23.218;2023-05-07T01:10:12;7.70;;;3.77;;
43552;SDS011;29153;42.696;23.218;2023-05-07T01:12:41;6.78;;;4.75;;
43552;SDS011;29153;42.696;23.218;2023-05-07T01:15:09;6.40;;;3.87;;
43552;SDS011;29153;42.696;23.218;2023-05-07T01:17:39;6.53;;;3.55;;
43552;SDS011;29153;42.696;23.218;2023-05-07T01:20:07;7.25;;;3.80;;
43552;SDS011;29153;42.696;23.218;2023-05-07T01:22:39;8.30;;;4.28;;
43552;SDS011;29153;42.696;23.218;2023-05-07T01:25:09;7.42;;;4.12;;
43552;SDS011;29153;42.696;23.218;2023-05-07T01:27:37;7.60;;;3.83;;
43552;SDS011;29153;42.696;23.218;2023-05-07T01:30:05;7.03;;;4.12;;
43552;SDS011;29153;42.696;23.218;2023-05-07T01:32:43;7.15;;;4.50;;
43552;SDS011;29153;42.696;23.218;2023-05-07T01:35:20;6.15;;;3.77;;
43552;SDS011;29153;42.696;23.218;2023-05-07T01:37:50;6.08;;;3.72;;
43552;SDS011;29153;42.696;23.218;2023-05-07T01:40:17;6.95;;;3.87;;
43552;SDS011;29153;42.696;23.218;2023-05-07T01:42:45;6.85;;;4.12;;
43552;SDS011;29153;42.696;23.218;2023-05-07T01:45:16;7.92;;;4.10;;
43552;SDS011;29153;42.696;23.218;2023-05-07T01:47:45;7.78;;;4.33;;
43552;SDS011;29153;42.696;23.218;2023-05-07T01:50:12;7.58;;;4.37;;
43552;SDS011;29153;42.696;23.218;2023-05-07T01:52:43;8.85;;;4.30;;
43552;SDS011;29153;42.696;23.218;2023-05-07T01:55:11;8.53;;;4.50;;
43552;SDS011;29153;42.696;23.218;2023-05-07T01:57:38;9.88;;;5.37;;
43552;SDS011;29153;42.696;23.218;2023-05-07T02:00:06;6.85;;;4.20;;
43552;SDS011;29153;42.696;23.218;2023-05-07T02:02:34;8.93;;;4.70;;
43552;SDS011;29153;42.696;23.218;2023-05-07T02:05:03;6.92;;;4.35;;
43552;SDS011;29153;42.696;23.218;2023-05-07T02:07:31;6.80;;;4.20;;
43552;SDS011;29153;42.696;23.218;2023-05-07T02:09:59;8.18;;;4.70;;
43552;SDS011;29153;42.696;23.218;2023-05-07T02:12:26;9.93;;;4.62;;
43552;SDS011;29153;42.696;23.218;2023-05-07T02:14:54;8.13;;;4.28;;
43552;SDS011;29153;42.696;23.218;2023-05-07T02:17:21;7.30;;;4.12;;
43552;SDS011;29153;42.696;23.218;2023-05-07T02:19:49;7.17;;;4.00;;
43552;SDS011;29153;42.696;23.218;2023-05-07T02:22:16;7.53;;;4.15;;
43552;SDS011;29153;42.696;23.218;2023-05-07T02:24:44;7.60;;;4.15;;
43552;SDS011;29153;42.696;23.218;2023-05-07T02:27:12;6.87;;;4.25;;
43552;SDS011;29153;42.696;23.218;2023-05-07T02:29:39;8.25;;;4.22;;
43552;SDS011;29153;42.696;23.218;2023-05-07T02:32:07;7.83;;;4.75;;
43552;SDS011;29153;42.696;23.218;2023-05-07T02:34:34;8.58;;;4.08;;
43552;SDS011;29153;42.696;23.218;2023-05-07T02:37:02;8.33;;;4.00;;
43552;SDS011;29153;42.696;23.218;2023-05-07T02:39:29;7.40;;;4.15;;
43552;SDS011;29153;42.696;23.218;2023-05-07T02:41:57;7.42;;;4.08;;
43552;SDS011;29153;42.696;23.218;2023-05-07T02:44:25;6.70;;;4.65;;
43552;SDS011;29153;42.696;23.218;2023-05-07T02:46:54;7.80;;;4.15;;
43552;SDS011;29153;42.696;23.218;2023-05-07T02:49:22;9.15;;;4.25;;
43552;SDS011;29153;42.696;23.218;2023-05-07T02:51:50;10.23;;;4.70;;
43552;SDS011;29153;42.696;23.218;2023-05-07T02:54:17;7.42;;;4.22;;
43552;SDS011;29153;42.696;23.218;2023-05-07T02:56:45;11.00;;;5.70;;
43552;SDS011;29153;42.696;23.218;2023-05-07T02:59:12;9.20;;;5.03;;
43552;SDS011;29153;42.696;23.218;2023-05-07T03:01:40;7.05;;;4.40;;
43552;SDS011;29153;42.696;23.218;2023-05-07T03:04:09;9.90;;;5.40;;
43552;SDS011;29153;42.696;23.218;2023-05-07T03:06:37;8.53;;;5.25;;
43552;SDS011;29153;42.696;23.218;2023-05-07T03:09:05;10.00;;;5.00;;
43552;SDS011;29153;42.696;23.218;2023-05-07T03:11:32;9.30;;;5.40;;
43552;SDS011;29153;42.696;23.218;2023-05-07T03:14:01;7.80;;;4.78;;
43552;SDS011;29153;42.696;23.218;2023-05-07T03:16:28;7.78;;;4.83;;
43552;SDS011;29153;42.696;23.218;2023-05-07T03:18:56;9.05;;;4.95;;
43552;SDS011;29153;42.696;23.218;2023-05-07T03:21:23;8.13;;;4.35;;
43552;SDS011;29153;42.696;23.218;2023-05-07T03:23:52;9.18;;;4.92;;
43552;SDS011;29153;42.696;23.218;2023-05-07T03:26:19;7.58;;;4.35;;
43552;SDS011;29153;42.696;23.218;2023-05-07T03:28:47;7.72;;;4.60;;
43552;SDS011;29153;42.696;23.218;2023-05-07T03:31:14;8.35;;;4.90;;
43552;SDS011;29153;42.696;23.218;2023-05-07T03:33:51;8.43;;;4.78;;
43552;SDS011;29153;42.696;23.218;2023-05-07T03:36:17;8.60;;;5.12;;
43552;SDS011;29153;42.696;23.218;2023-05-07T03:38:45;8.15;;;5.08;;
43552;SDS011;29153;42.696;23.218;2023-05-07T03:41:13;8.05;;;4.65;;
43552;SDS011;29153;42.696;23.218;2023-05-07T03:43:40;8.70;;;4.85;;
43552;SDS011;29153;42.696;23.218;2023-05-07T03:46:08;7.85;;;4.75;;
43552;SDS011;29153;42.696;23.218;2023-05-07T03:48:36;8.85;;;5.12;;
43552;SDS011;29153;42.696;23.218;2023-05-07T03:51:03;8.35;;;4.87;;
43552;SDS011;29153;42.696;23.218;2023-05-07T03:53:31;6.95;;;4.50;;
43552;SDS011;29153;42.696;23.218;2023-05-07T03:55:58;8.48;;;5.33;;
43552;SDS011;29153;42.696;23.218;2023-05-07T03:58:26;10.40;;;5.33;;
43552;SDS011;29153;42.696;23.218;2023-05-07T04:00:53;9.88;;;5.85;;
43552;SDS011;29153;42.696;23.218;2023-05-07T04:03:21;8.28;;;4.90;;
43552;SDS011;29153;42.696;23.218;2023-05-07T04:05:48;10.08;;;5.95;;
43552;SDS011;29153;42.696;23.218;2023-05-07T04:08:16;7.78;;;5.30;;
43552;SDS011;29153;42.696;23.218;2023-05-07T04:10:44;11.30;;;6.12;;
43552;SDS011;29153;42.696;23.218;2023-05-07T04:13:11;10.35;;;5.15;;
43552;SDS011;29153;42.696;23.218;2023-05-07T04:15:39;9.25;;;5.72;;
43552;SDS011;29153;42.696;23.218;2023-05-07T04:18:07;8.58;;;4.87;;
43552;SDS011;29153;42.696;23.218;2023-05-07T04:20:34;9.60;;;5.22;;
43552;SDS011;29153;42.696;23.218;2023-05-07T04:23:02;8.83;;;5.33;;
43552;SDS011;29153;42.696;23.218;2023-05-07T04:25:29;9.48;;;5.53;;
43552;SDS011;29153;42.696;23.218;2023-05-07T04:27:57;8.38;;;5.33;;
43552;SDS011;29153;42.696;23.218;2023-05-07T04:30:25;9.25;;;5.62;;
43552;SDS011;29153;42.696;23.218;2023-05-07T04:32:52;12.53;;;5.92;;
43552;SDS011;29153;42.696;23.218;2023-05-07T04:35:21;11.65;;;6.53;;
43552;SDS011;29153;42.696;23.218;2023-05-07T04:37:49;11.40;;;6.10;;
43552;SDS011;29153;42.696;23.218;2023-05-07T04:40:16;10.43;;;6.40;;
43552;SDS011;29153;42.696;23.218;2023-05-07T04:42:44;10.48;;;7.00;;
43552;SDS011;29153;42.696;23.218;2023-05-07T04:45:11;18.42;;;9.45;;
43552;SDS011;29153;42.696;23.218;2023-05-07T04:47:39;15.75;;;9.20;;
43552;SDS011;29153;42.696;23.218;2023-05-07T04:50:07;14.25;;;8.58;;
43552;SDS011;29153;42.696;23.218;2023-05-07T04:52:35;13.90;;;9.15;;
43552;SDS011;29153;42.696;23.218;2023-05-07T04:55:03;15.10;;;9.73;;
43552;SDS011;29153;42.696;23.218;2023-05-07T04:57:30;12.93;;;8.25;;
43552;SDS011;29153;42.696;23.218;2023-05-07T04:59:58;13.98;;;7.65;;
43552;SDS011;29153;42.696;23.218;2023-05-07T05:02:26;12.65;;;8.48;;
43552;SDS011;29153;42.696;23.218;2023-05-07T05:04:53;14.73;;;8.53;;
43552;SDS011;29153;42.696;23.218;2023-05-07T05:07:21;15.68;;;9.25;;
43552;SDS011;29153;42.696;23.218;2023-05-07T05:09:48;14.28;;;9.10;;
43552;SDS011;29153;42.696;23.218;2023-05-07T05:12:16;13.83;;;9.38;;
43552;SDS011;29153;42.696;23.218;2023-05-07T05:14:43;15.25;;;9.25;;
43552;SDS011;29153;42.696;23.218;2023-05-07T05:17:11;14.40;;;8.15;;
43552;SDS011;29153;42.696;23.218;2023-05-07T05:19:38;12.15;;;8.53;;
43552;SDS011;29153;42.696;23.218;2023-05-07T05:22:06;17.20;;;8.90;;
43552;SDS011;29153;42.696;23.218;2023-05-07T05:24:34;13.62;;;8.40;;
43552;SDS011;29153;42.696;23.218;2023-05-07T05:27:01;12.10;;;7.90;;
43552;SDS011;29153;42.696;23.218;2023-05-07T05:29:29;15.32;;;9.25;;
43552;SDS011;29153;42.696;23.218;2023-05-07T05:31:57;12.28;;;8.35;;
43552;SDS011;29153;42.696;23.218;2023-05-07T05:34:24;12.28;;;8.23;;
43552;SDS011;29153;42.696;23.218;2023-05-07T05:36:53;11.90;;;8.75;;
43552;SDS011;29153;42.696;23.218;2023-05-07T05:39:20;13.05;;;7.75;;
43552;SDS011;29153;42.696;23.218;2023-05-07T05:41:48;11.48;;;7.08;;
43552;SDS011;29153;42.696;23.218;2023-05-07T05:44:16;12.58;;;7.92;;
43552;SDS011;29153;42.696;23.218;2023-05-07T05:46:43;11.53;;;7.30;;
43552;SDS011;29153;42.696;23.218;2023-05-07T05:49:11;11.10;;;7.37;;
43552;SDS011;29153;42.696;23.218;2023-05-07T05:51:38;10.13;;;7.08;;
43552;SDS011;29153;42.696;23.218;2023-05-07T05:54:06;10.70;;;7.30;;
43552;SDS011;29153;42.696;23.218;2023-05-07T05:56:34;11.05;;;7.50;;
43552;SDS011;29153;42.696;23.218;2023-05-07T05:59:01;13.38;;;7.08;;
43552;SDS011;29153;42.696;23.218;2023-05-07T06:01:29;10.90;;;7.10;;
43552;SDS011;29153;42.696;23.218;2023-05-07T06:03:56;11.08;;;6.78;;
43552;SDS011;29153;42.696;23.218;2023-05-07T06:06:24;12.10;;;6.70;;
43552;SDS011;29153;42.696;23.218;2023-05-07T06:08:51;12.63;;;7.20;;
43552;SDS011;29153;42.696;23.218;2023-05-07T06:11:19;10.15;;;6.90;;
43552;SDS011;29153;42.696;23.218;2023-05-07T06:13:47;10.15;;;7.35;;
43552;SDS011;29153;42.696;23.218;2023-05-07T06:16:14;10.38;;;7.25;;
43552;SDS011;29153;42.696;23.218;2023-05-07T06:18:42;12.60;;;7.00;;
43552;SDS011;29153;42.696;23.218;2023-05-07T06:21:11;9.90;;;6.87;;
43552;SDS011;29153;42.696;23.218;2023-05-07T06:23:40;12.93;;;7.60;;
43552;SDS011;29153;42.696;23.218;2023-05-07T06:26:08;13.95;;;7.55;;
43552;SDS011;29153;42.696;23.218;2023-05-07T06:28:35;9.30;;;6.35;;
43552;SDS011;29153;42.696;23.218;2023-05-07T06:31:13;10.45;;;7.22;;
43552;SDS011;29153;42.696;23.218;2023-05-07T06:33:41;13.83;;;7.20;;
43552;SDS011;29153;42.696;23.218;2023-05-07T06:36:10;12.70;;;6.67;;
43552;SDS011;29153;42.696;23.218;2023-05-07T06:38:38;10.35;;;6.70;;
43552;SDS011;29153;42.696;23.218;2023-05-07T06:41:05;14.50;;;7.17;;
43552;SDS011;29153;42.696;23.218;2023-05-07T06:43:33;9.13;;;5.95;;
43552;SDS011;29153;42.696;23.218;2023-05-07T06:46:02;9.23;;;6.83;;
43552;SDS011;29153;42.696;23.218;2023-05-07T06:48:29;11.97;;;6.95;;
43552;SDS011;29153;42.696;23.218;2023-05-07T06:50:57;8.90;;;6.05;;
43552;SDS011;29153;42.696;23.218;2023-05-07T06:53:25;9.53;;;6.20;;
43552;SDS011;29153;42.696;23.218;2023-05-07T06:55:53;8.35;;;5.53;;
43552;SDS011;29153;42.696;23.218;2023-05-07T06:58:21;8.85;;;6.42;;
43552;SDS011;29153;42.696;23.218;2023-05-07T07:00:49;10.65;;;6.60;;
43552;SDS011;29153;42.696;23.218;2023-05-07T07:03:16;10.80;;;6.20;;
43552;SDS011;29153;42.696;23.218;2023-05-07T07:05:44;7.97;;;6.05;;
43552;SDS011;29153;42.696;23.218;2023-05-07T07:08:11;8.93;;;5.85;;
43552;SDS011;29153;42.696;23.218;2023-05-07T07:10:40;8.53;;;5.28;;
43552;SDS011;29153;42.696;23.218;2023-05-07T07:13:07;8.90;;;6.00;;
43552;SDS011;29153;42.696;23.218;2023-05-07T07:15:35;11.22;;;5.72;;
43552;SDS011;29153;42.696;23.218;2023-05-07T07:18:02;9.78;;;6.42;;
43552;SDS011;29153;42.696;23.218;2023-05-07T07:20:30;10.90;;;5.90;;
43552;SDS011;29153;42.696;23.218;2023-05-07T07:22:58;12.55;;;5.72;;
43552;SDS011;29153;42.696;23.218;2023-05-07T07:25:26;8.48;;;5.53;;
43552;SDS011;29153;42.696;23.218;2023-05-07T07:27:53;7.25;;;5.65;;
43552;SDS011;29153;42.696;23.218;2023-05-07T07:30:21;7.37;;;5.47;;
43552;SDS011;29153;42.696;23.218;2023-05-07T07:32:48;11.43;;;4.87;;
43552;SDS011;29153;42.696;23.218;2023-05-07T07:35:17;9.28;;;5.22;;
43552;SDS011;29153;42.696;23.218;2023-05-07T07:37:44;9.93;;;5.37;;
43552;SDS011;29153;42.696;23.218;2023-05-07T07:40:26;7.08;;;4.35;;
43552;SDS011;29153;42.696;23.218;2023-05-07T07:42:47;8.90;;;5.17;;
43552;SDS011;29153;42.696;23.218;2023-05-07T07:45:15;8.35;;;5.53;;
43552;SDS011;29153;42.696;23.218;2023-05-07T07:47:42;11.80;;;5.30;;
43552;SDS011;29153;42.696;23.218;2023-05-07T07:50:10;11.15;;;6.15;;
43552;SDS011;29153;42.696;23.218;2023-05-07T07:52:38;9.15;;;6.40;;
43552;SDS011;29153;42.696;23.218;2023-05-07T07:55:06;10.65;;;6.65;;
43552;SDS011;29153;42.696;23.218;2023-05-07T07:57:34;11.18;;;6.50;;
43552;SDS011;29153;42.696;23.218;2023-05-07T08:00:02;8.40;;;5.40;;
43552;SDS011;29153;42.696;23.218;2023-05-07T08:02:31;8.73;;;5.75;;
43552;SDS011;29153;42.696;23.218;2023-05-07T08:04:59;8.10;;;4.72;;
43552;SDS011;29153;42.696;23.218;2023-05-07T08:07:26;7.28;;;4.28;;
43552;SDS011;29153;42.696;23.218;2023-05-07T08:09:54;33.60;;;6.25;;
43552;SDS011;29153;42.696;23.218;2023-05-07T08:12:22;7.10;;;4.92;;
43552;SDS011;29153;42.696;23.218;2023-05-07T08:14:49;9.03;;;4.47;;
43552;SDS011;29153;42.696;23.218;2023-05-07T08:17:17;6.80;;;4.17;;
43552;SDS011;29153;42.696;23.218;2023-05-07T08:19:44;7.40;;;3.87;;
43552;SDS011;29153;42.696;23.218;2023-05-07T08:22:12;7.22;;;4.87;;
43552;SDS011;29153;42.696;23.218;2023-05-07T08:24:39;7.78;;;4.25;;
43552;SDS011;29153;42.696;23.218;2023-05-07T08:27:07;5.60;;;3.83;;
43552;SDS011;29153;42.696;23.218;2023-05-07T08:29:35;15.25;;;5.40;;
43552;SDS011;29153;42.696;23.218;2023-05-07T08:32:02;40.52;;;9.05;;
43552;SDS011;29153;42.696;23.218;2023-05-07T08:34:30;7.65;;;4.25;;
43552;SDS011;29153;42.696;23.218;2023-05-07T08:36:57;8.03;;;4.58;;
43552;SDS011;29153;42.696;23.218;2023-05-07T08:39:25;7.62;;;4.00;;
43552;SDS011;29153;42.696;23.218;2023-05-07T08:41:53;5.87;;;3.60;;
43552;SDS011;29153;42.696;23.218;2023-05-07T08:44:23;7.67;;;4.55;;
43552;SDS011;29153;42.696;23.218;2023-05-07T08:46:53;9.73;;;5.70;;
43552;SDS011;29153;42.696;23.218;2023-05-07T08:49:23;8.53;;;4.80;;
43552;SDS011;29153;42.696;23.218;2023-05-07T08:51:50;7.22;;;4.30;;
43552;SDS011;29153;42.696;23.218;2023-05-07T08:56:46;6.78;;;3.87;;
43552;SDS011;29153;42.696;23.218;2023-05-07T09:01:41;5.87;;;3.33;;
43552;SDS011;29153;42.696;23.218;2023-05-07T09:04:08;8.83;;;3.92;;
43552;SDS011;29153;42.696;23.218;2023-05-07T09:06:36;6.10;;;3.77;;
43552;SDS011;29153;42.696;23.218;2023-05-07T09:09:05;7.20;;;3.87;;
43552;SDS011;29153;42.696;23.218;2023-05-07T09:11:33;6.22;;;3.77;;
43552;SDS011;29153;42.696;23.218;2023-05-07T09:14:00;7.37;;;4.00;;
43552;SDS011;29153;42.696;23.218;2023-05-07T09:16:29;7.90;;;4.53;;
43552;SDS011;29153;42.696;23.218;2023-05-07T09:18:57;6.40;;;3.52;;
43552;SDS011;29153;42.696;23.218;2023-05-07T09:21:26;6.65;;;3.30;;
43552;SDS011;29153;42.696;23.218;2023-05-07T09:23:54;5.12;;;3.42;;
43552;SDS011;29153;42.696;23.218;2023-05-07T09:26:22;5.62;;;3.00;;
43552;SDS011;29153;42.696;23.218;2023-05-07T09:28:51;5.03;;;2.95;;
43552;SDS011;29153;42.696;23.218;2023-05-07T09:31:19;5.87;;;3.50;;
43552;SDS011;29153;42.696;23.218;2023-05-07T09:33:48;6.03;;;3.35;;
43552;SDS011;29153;42.696;23.218;2023-05-07T09:36:16;5.22;;;3.00;;
43552;SDS011;29153;42.696;23.218;2023-05-07T09:38:44;5.33;;;3.15;;
43552;SDS011;29153;42.696;23.218;2023-05-07T09:41:12;5.87;;;3.58;;
43552;SDS011;29153;42.696;23.218;2023-05-07T09:43:40;5.42;;;3.00;;
43552;SDS011;29153;42.696;23.218;2023-05-07T09:46:11;6.35;;;3.45;;
43552;SDS011;29153;42.696;23.218;2023-05-07T09:48:41;5.55;;;3.15;;
43552;SDS011;29153;42.696;23.218;2023-05-07T09:51:24;5.28;;;3.37;;
43552;SDS011;29153;42.696;23.218;2023-05-07T09:53:58;6.28;;;2.65;;
43552;SDS011;29153;42.696;23.218;2023-05-07T09:56:29;10.68;;;5.03;;
43552;SDS011;29153;42.696;23.218;2023-05-07T09:59:02;5.80;;;2.95;;
43552;SDS011;29153;42.696;23.218;2023-05-07T10:01:27;11.65;;;3.40;;
43552;SDS011;29153;42.696;23.218;2023-05-07T10:03:56;5.15;;;3.00;;
43552;SDS011;29153;42.696;23.218;2023-05-07T10:06:24;6.10;;;3.42;;
43552;SDS011;29153;42.696;23.218;2023-05-07T10:08:52;4.80;;;3.20;;
43552;SDS011;29153;42.696;23.218;2023-05-07T10:11:21;3.80;;;2.80;;
43552;SDS011;29153;42.696;23.218;2023-05-07T10:13:49;6.53;;;2.75;;
43552;SDS011;29153;42.696;23.218;2023-05-07T10:16:18;8.05;;;2.95;;
43552;SDS011;29153;42.696;23.218;2023-05-07T10:18:46;6.28;;;3.65;;
43552;SDS011;29153;42.696;23.218;2023-05-07T10:23:51;4.95;;;2.60;;
43552;SDS011;29153;42.696;23.218;2023-05-07T10:26:26;5.05;;;2.90;;
43552;SDS011;29153;42.696;23.218;2023-05-07T10:28:58;4.53;;;2.70;;
43552;SDS011;29153;42.696;23.218;2023-05-07T10:31:38;6.25;;;2.70;;
43552;SDS011;29153;42.696;23.218;2023-05-07T10:34:09;6.42;;;3.20;;
43552;SDS011;29153;42.696;23.218;2023-05-07T10:36:39;4.25;;;2.72;;
43552;SDS011;29153;42.696;23.218;2023-05-07T10:39:07;5.65;;;2.83;;
43552;SDS011;29153;42.696;23.218;2023-05-07T10:41:36;7.00;;;3.27;;
43552;SDS011;29153;42.696;23.218;2023-05-07T10:44:03;4.30;;;2.42;;
43552;SDS011;29153;42.696;23.218;2023-05-07T10:46:31;4.95;;;3.20;;
43552;SDS011;29153;42.696;23.218;2023-05-07T10:51:34;5.08;;;2.70;;
43552;SDS011;29153;42.696;23.218;2023-05-07T10:54:24;4.40;;;2.92;;
43552;SDS011;29153;42.696;23.218;2023-05-07T11:34:15;5.20;;;2.50;;
43552;SDS011;29153;42.696;23.218;2023-05-07T11:36:48;16.93;;;2.85;;
43552;SDS011;29153;42.696;23.218;2023-05-07T11:39:29;3.52;;;2.08;;
43552;SDS011;29153;42.696;23.218;2023-05-07T11:41:59;5.03;;;2.80;;
43552;SDS011;29153;42.696;23.218;2023-05-07T11:44:43;4.20;;;2.72;;
43552;SDS011;29153;42.696;23.218;2023-05-07T11:47:17;4.00;;;2.60;;
43552;SDS011;29153;42.696;23.218;2023-05-07T11:49:46;3.72;;;2.70;;
43552;SDS011;29153;42.696;23.218;2023-05-07T11:52:14;3.87;;;2.72;;
43552;SDS011;29153;42.696;23.218;2023-05-07T11:54:49;5.75;;;2.25;;
43552;SDS011;29153;42.696;23.218;2023-05-07T11:57:18;5.37;;;2.83;;
43552;SDS011;29153;42.696;23.218;2023-05-07T11:59:46;5.78;;;2.90;;
43552;SDS011;29153;42.696;23.218;2023-05-07T12:02:14;4.78;;;2.40;;
43552;SDS011;29153;42.696;23.218;2023-05-07T12:04:43;4.10;;;2.52;;
43552;SDS011;29153;42.696;23.218;2023-05-07T12:07:15;6.85;;;2.72;;
43552;SDS011;29153;42.696;23.218;2023-05-07T12:09:44;5.47;;;2.75;;
43552;SDS011;29153;42.696;23.218;2023-05-07T12:31:34;5.25;;;2.30;;
43552;SDS011;29153;42.696;23.218;2023-05-07T12:34:02;4.03;;;2.62;;
43552;SDS011;29153;42.696;23.218;2023-05-07T12:36:36;6.15;;;2.72;;
43552;SDS011;29153;42.696;23.218;2023-05-07T12:39:10;5.42;;;2.80;;
43552;SDS011;29153;42.696;23.218;2023-05-07T12:44:30;8.05;;;3.20;;
43552;SDS011;29153;42.696;23.218;2023-05-07T12:47:02;3.80;;;2.65;;
43552;SDS011;29153;42.696;23.218;2023-05-07T12:49:30;6.35;;;3.60;;
43552;SDS011;29153;42.696;23.218;2023-05-07T12:51:58;7.78;;;2.87;;
43552;SDS011;29153;42.696;23.218;2023-05-07T12:54:29;5.35;;;2.70;;
43552;SDS011;29153;42.696;23.218;2023-05-07T12:59:37;5.78;;;2.22;;
43552;SDS011;29153;42.696;23.218;2023-05-07T13:02:07;4.10;;;2.52;;
43552;SDS011;29153;42.696;23.218;2023-05-07T13:04:35;9.30;;;3.08;;
43552;SDS011;29153;42.696;23.218;2023-05-07T13:07:02;5.20;;;2.70;;
43552;SDS011;29153;42.696;23.218;2023-05-07T13:09:30;9.38;;;2.60;;
43552;SDS011;29153;42.696;23.218;2023-05-07T13:11:58;4.45;;;2.60;;
43552;SDS011;29153;42.696;23.218;2023-05-07T13:14:26;6.20;;;2.37;;
43552;SDS011;29153;42.696;23.218;2023-05-07T13:16:54;3.70;;;2.47;;
43552;SDS011;29153;42.696;23.218;2023-05-07T13:19:22;6.85;;;3.20;;
43552;SDS011;29153;42.696;23.218;2023-05-07T13:21:49;4.75;;;2.22;;
43552;SDS011;29153;42.696;23.218;2023-05-07T13:24:17;5.25;;;2.30;;
43552;SDS011;29153;42.696;23.218;2023-05-07T13:26:44;4.30;;;2.15;;
43552;SDS011;29153;42.696;23.218;2023-05-07T13:29:12;3.37;;;2.37;;
43552;SDS011;29153;42.696;23.218;2023-05-07T13:31:39;4.08;;;2.50;;
43552;SDS011;29153;42.696;23.218;2023-05-07T13:34:09;3.10;;;2.58;;
43552;SDS011;29153;42.696;23.218;2023-05-07T13:36:36;4.35;;;2.65;;
43552;SDS011;29153;42.696;23.218;2023-05-07T13:39:05;3.80;;;2.90;;
43552;SDS011;29153;42.696;23.218;2023-05-07T13:41:33;4.05;;;2.33;;
43552;SDS011;29153;42.696;23.218;2023-05-07T13:44:00;5.83;;;3.05;;
43552;SDS011;29153;42.696;23.218;2023-05-07T13:46:28;4.97;;;2.60;;
43552;SDS011;29153;42.696;23.218;2023-05-07T13:48:55;3.92;;;2.15;;
43552;SDS011;29153;42.696;23.218;2023-05-07T13:51:23;9.18;;;2.27;;
43552;SDS011;29153;42.696;23.218;2023-05-07T13:53:51;5.80;;;2.90;;
43552;SDS011;29153;42.696;23.218;2023-05-07T13:56:19;6.12;;;2.00;;
43552;SDS011;29153;42.696;23.218;2023-05-07T13:58:47;13.93;;;3.12;;
43552;SDS011;29153;42.696;23.218;2023-05-07T14:01:14;4.87;;;2.70;;
43552;SDS011;29153;42.696;23.218;2023-05-07T14:03:42;5.55;;;2.30;;
43552;SDS011;29153;42.696;23.218;2023-05-07T14:08:37;5.97;;;2.25;;
43552;SDS011;29153;42.696;23.218;2023-05-07T14:11:04;3.10;;;2.50;;
43552;SDS011;29153;42.696;23.218;2023-05-07T14:13:32;5.47;;;2.67;;
43552;SDS011;29153;42.696;23.218;2023-05-07T14:18:26;4.55;;;3.10;;
43552;SDS011;29153;42.696;23.218;2023-05-07T14:20:54;4.05;;;2.70;;
43552;SDS011;29153;42.696;23.218;2023-05-07T14:23:22;3.65;;;2.83;;
43552;SDS011;29153;42.696;23.218;2023-05-07T14:25:51;4.60;;;2.62;;
43552;SDS011;29153;42.696;23.218;2023-05-07T14:28:19;4.65;;;2.12;;
43552;SDS011;29153;42.696;23.218;2023-05-07T14:30:46;4.22;;;2.45;;
43552;SDS011;29153;42.696;23.218;2023-05-07T14:33:14;3.92;;;2.50;;
43552;SDS011;29153;42.696;23.218;2023-05-07T14:35:41;3.67;;;2.70;;
43552;SDS011;29153;42.696;23.218;2023-05-07T14:38:11;4.00;;;2.85;;
43552;SDS011;29153;42.696;23.218;2023-05-07T14:40:38;3.98;;;2.60;;
43552;SDS011;29153;42.696;23.218;2023-05-07T14:43:06;3.45;;;2.80;;
43552;SDS011;29153;42.696;23.218;2023-05-07T14:45:33;4.40;;;3.08;;
43552;SDS011;29153;42.696;23.218;2023-05-07T14:48:01;3.80;;;2.77;;
43552;SDS011;29153;42.696;23.218;2023-05-07T14:50:29;3.50;;;2.70;;
43552;SDS011;29153;42.696;23.218;2023-05-07T14:52:56;3.87;;;2.77;;
43552;SDS011;29153;42.696;23.218;2023-05-07T14:55:24;3.87;;;2.15;;
43552;SDS011;29153;42.696;23.218;2023-05-07T14:57:51;5.03;;;2.98;;
43552;SDS011;29153;42.696;23.218;2023-05-07T15:00:19;4.70;;;2.65;;
43552;SDS011;29153;42.696;23.218;2023-05-07T15:02:46;4.95;;;3.20;;
43552;SDS011;29153;42.696;23.218;2023-05-07T15:05:14;3.33;;;2.10;;
43552;SDS011;29153;42.696;23.218;2023-05-07T15:07:43;5.03;;;2.47;;
43552;SDS011;29153;42.696;23.218;2023-05-07T15:10:10;22.75;;;2.72;;
43552;SDS011;29153;42.696;23.218;2023-05-07T15:12:38;9.30;;;2.83;;
43552;SDS011;29153;42.696;23.218;2023-05-07T15:15:06;8.68;;;2.00;;
43552;SDS011;29153;42.696;23.218;2023-05-07T15:17:34;4.25;;;2.60;;
43552;SDS011;29153;42.696;23.218;2023-05-07T15:20:01;4.03;;;1.90;;
43552;SDS011;29153;42.696;23.218;2023-05-07T15:22:30;3.80;;;2.33;;
43552;SDS011;29153;42.696;23.218;2023-05-07T15:24:58;6.17;;;2.45;;
43552;SDS011;29153;42.696;23.218;2023-05-07T15:27:25;6.83;;;2.27;;
43552;SDS011;29153;42.696;23.218;2023-05-07T15:29:53;5.22;;;2.70;;
43552;SDS011;29153;42.696;23.218;2023-05-07T15:32:20;5.60;;;2.87;;
43552;SDS011;29153;42.696;23.218;2023-05-07T15:34:48;5.60;;;2.02;;
43552;SDS011;29153;42.696;23.218;2023-05-07T15:37:15;4.35;;;2.40;;
43552;SDS011;29153;42.696;23.218;2023-05-07T15:39:43;6.22;;;1.82;;
43552;SDS011;29153;42.696;23.218;2023-05-07T15:42:11;3.42;;;2.02;;
43552;SDS011;29153;42.696;23.218;2023-05-07T15:44:38;5.25;;;2.37;;
43552;SDS011;29153;42.696;23.218;2023-05-07T15:47:06;4.40;;;2.35;;
43552;SDS011;29153;42.696;23.218;2023-05-07T15:49:34;6.33;;;2.83;;
43552;SDS011;29153;42.696;23.218;2023-05-07T15:52:02;6.37;;;2.33;;
43552;SDS011;29153;42.696;23.218;2023-05-07T15:54:29;6.37;;;2.65;;
43552;SDS011;29153;42.696;23.218;2023-05-07T15:56:57;12.43;;;2.60;;